Terminal Aerodrome Forecast
Issued by NWS

Home | Current Version | Previous Version | Text Only | Print | Product List | Glossary Off
Versions: 1 2 3 4 5 6 7 8 9 10 11 12 13 14 15 16 17 18 19 20 21 22 23 24

000
FTUS43 KMPX 211700
TAFAXN
TAF
KAXN 211724Z 2118/2218 16012KT P6SM FEW015 SCT200
     FM220300 15006KT P6SM VCSH SCT060 OVC120 PROB30 2203/2206
      27030G45KT 1SM TSRA BKN040CB
     FM220700 15005KT 6SM BR FEW010 BKN080
     FM220900 30006KT 5SM BR SCT005 BKN015
     FM221300 32015G22KT P6SM SCT020 BKN250=

USA.gov is the U.S. government's official web portal to all federal, state and local government web resources and services.